Time,TemperatureF,DewpointF,PressureIn,WindDirection,WindDirectionDegrees,WindSpeedMPH,WindSpeedGustMPH,Humidity,HourlyPrecipIn,Conditions,Clouds,dailyrainin,SoftwareType,DateUTC
2013-08-03 00:00:00,68.9,57.1,30.12,ESE,112,0.0,0.0,66,0.00,RA,,0.00,WeatherDisplay:10.37,2013-08-03 07:00:00,
2013-08-03 00:05:00,68.9,57.0,30.12,ESE,112,0.0,0.0,66,0.00,RA,,0.00,WeatherDisplay:10.37,2013-08-03 07:05:00,
2013-08-03 00:10:00,68.7,56.5,30.12,ESE,112,0.0,0.0,65,0.00,CLR,,0.00,WeatherDisplay:10.37,2013-08-03 07:10:00,
2013-08-03 00:20:00,68.6,55.9,30.12,ESE,112,0.0,0.0,64,0.00,CLR,,0.00,WeatherDisplay:10.37,2013-08-03 07:20:00,
2013-08-03 00:30:00,68.5,55.4,30.12,ESE,112,0.0,0.0,63,0.00,CLR,,0.00,WeatherDisplay:10.37,2013-08-03 07:30:00,
2013-08-03 00:40:00,68.6,55.1,30.12,ESE,112,0.0,0.0,62,0.00,CLR,,0.00,WeatherDisplay:10.37,2013-08-03 07:40:00,
2013-08-03 00:50:00,68.7,55.6,30.11,ESE,112,0.0,0.0,63,0.00,CLR,,0.00,WeatherDisplay:10.37,2013-08-03 07:50:00,
2013-08-03 01:00:00,68.7,56.5,30.11,ESE,112,0.0,0.0,65,0.00,CLR,,0.00,WeatherDisplay:10.37,2013-08-03 08:00:00,
2013-08-03 01:05:00,68.7,56.9,30.12,ESE,112,0.0,0.0,66,0.00,CLR,,0.00,WeatherDisplay:10.37,2013-08-03 08:05:00,
2013-08-03 01:10:00,68.7,57.3,30.11,ESE,112,0.0,0.0,67,0.00,CLR,,0.00,WeatherDisplay:10.37,2013-08-03 08:10:00,
2013-08-03 01:20:00,68.7,58.1,30.11,ESE,112,0.0,0.0,69,0.00,CLR,,0.00,WeatherDisplay:10.37,2013-08-03 08:20:00,
2013-08-03 01:30:00,68.5,57.6,30.10,ESE,112,0.0,0.0,68,0.00,CLR,,0.00,WeatherDisplay:10.37,2013-08-03 08:30:00,
2013-08-03 01:40:00,68.4,57.0,30.09,ESE,112,0.0,0.0,67,0.00,CLR,,0.00,WeatherDisplay:10.37,2013-08-03 08:40:00,
2013-08-03 01:50:00,68.4,55.7,30.09,ESE,112,0.0,0.0,64,0.00,CLR,,0.00,WeatherDisplay:10.37,2013-08-03 08:50:00,
2013-08-03 01:55:00,68.4,55.7,30.10,ESE,112,0.0,0.0,64,0.00,CLR,,0.00,WeatherDisplay:10.37,2013-08-03 08:55:00,
2013-08-03 02:00:00,68.4,55.7,30.09,ESE,112,0.0,0.0,64,0.00,CLR,,0.00,WeatherDisplay:10.37,2013-08-03 09:00:00,
2013-08-03 02:05:00,68.4,55.7,30.09,ESE,112,0.0,0.0,64,0.00,CLR,,0.00,WeatherDisplay:10.37,2013-08-03 09:05:00,
2013-08-03 02:10:00,68.2,55.5,30.09,ESE,112,0.0,0.0,64,0.00,CLR,,0.00,WeatherDisplay:10.37,2013-08-03 09:10:00,
2013-08-03 02:20:00,67.8,55.6,30.10,ESE,112,0.0,0.0,65,0.00,CLR,,0.00,WeatherDisplay:10.37,2013-08-03 09:20:00,
2013-08-03 02:25:00,67.8,55.6,30.09,ESE,112,0.0,0.0,65,0.00,CLR,,0.00,WeatherDisplay:10.37,2013-08-03 09:25:00,
2013-08-03 02:30:00,67.8,55.6,30.09,ESE,112,0.0,0.0,65,0.00,CLR,,0.00,WeatherDisplay:10.37,2013-08-03 09:30:00,
2013-08-03 02:40:00,67.6,55.9,30.10,East,92,0.0,0.0,66,0.00,CLR,,0.00,WeatherDisplay:10.37,2013-08-03 09:40:00,
2013-08-03 02:50:00,67.3,56.0,30.09,East,90,0.0,0.0,67,0.00,CLR,,0.00,WeatherDisplay:10.37,2013-08-03 09:50:00,
2013-08-03 03:00:00,67.3,56.3,30.10,East,90,0.0,0.0,68,0.00,CLR,,0.00,WeatherDisplay:10.37,2013-08-03 10:00:00,
2013-08-03 03:05:00,67.1,56.2,30.10,East,90,0.0,0.0,68,0.00,CLR,,0.00,WeatherDisplay:10.37,2013-08-03 10:05:00,
2013-08-03 03:10:00,66.9,56.4,30.10,East,90,0.0,0.0,69,0.00,CLR,,0.00,WeatherDisplay:10.37,2013-08-03 10:10:00,
2013-08-03 03:20:00,66.7,56.6,30.10,East,90,0.0,0.0,70,0.00,CLR,,0.00,WeatherDisplay:10.37,2013-08-03 10:20:00,
2013-08-03 03:30:00,66.4,56.7,30.09,East,90,0.0,0.0,71,0.00,CLR,,0.00,WeatherDisplay:10.37,2013-08-03 10:30:00,
2013-08-03 03:40:00,66.0,56.7,30.10,East,90,0.0,0.0,72,0.00,CLR,,0.00,WeatherDisplay:10.37,2013-08-03 10:40:00,
2013-08-03 03:50:00,66.0,56.7,30.09,East,90,0.0,0.0,72,0.00,CLR,,0.00,WeatherDisplay:10.37,2013-08-03 10:50:00,
2013-08-03 04:00:00,65.8,56.5,30.09,East,90,0.0,0.0,72,0.00,CLR,,0.00,WeatherDisplay:10.37,2013-08-03 11:00:00,
2013-08-03 04:05:00,65.7,56.0,30.09,East,90,0.0,0.0,71,0.00,CLR,,0.00,WeatherDisplay:10.37,2013-08-03 11:05:00,
2013-08-03 04:10:00,65.5,55.8,30.09,East,90,0.0,0.0,71,0.00,CLR,,0.00,WeatherDisplay:10.37,2013-08-03 11:10:00,
2013-08-03 04:20:00,65.5,55.4,30.10,East,90,0.0,0.0,70,0.00,CLR,,0.00,WeatherDisplay:10.37,2013-08-03 11:20:00,
2013-08-03 04:30:00,65.1,55.1,30.10,East,90,0.0,0.0,70,0.00,CLR,,0.00,WeatherDisplay:10.37,2013-08-03 11:30:00,
2013-08-03 04:35:00,65.1,55.1,30.10,East,90,0.0,0.0,70,0.00,CLR,,0.00,WeatherDisplay:10.37,2013-08-03 11:35:00,
2013-08-03 04:40:00,64.9,54.9,30.10,East,90,0.0,0.0,70,0.00,CLR,,0.00,WeatherDisplay:10.37,2013-08-03 11:40:00,
2013-08-03 04:50:00,64.9,54.9,30.10,East,90,0.0,0.0,70,0.00,CLR,,0.00,WeatherDisplay:10.37,2013-08-03 11:50:00,
2013-08-03 05:00:00,64.8,54.7,30.10,East,90,0.0,0.0,70,0.00,CLR,,0.00,WeatherDisplay:10.37,2013-08-03 12:00:00,
2013-08-03 05:05:00,64.6,54.6,30.10,East,90,0.0,0.0,70,0.00,CLR,,0.00,WeatherDisplay:10.37,2013-08-03 12:05:00,
2013-08-03 05:10:00,64.6,54.2,30.10,East,90,0.0,0.0,69,0.00,CLR,,0.00,WeatherDisplay:10.37,2013-08-03 12:10:00,
2013-08-03 05:20:00,64.6,54.2,30.10,East,90,0.0,0.0,69,0.00,CLR,,0.00,WeatherDisplay:10.37,2013-08-03 12:20:00,
2013-08-03 05:30:00,64.6,54.2,30.11,East,90,0.0,0.0,69,0.00,CLR,,0.00,WeatherDisplay:10.37,2013-08-03 12:30:00,
2013-08-03 05:40:00,64.2,54.2,30.11,East,90,0.0,0.0,70,0.00,CLR,,0.00,WeatherDisplay:10.37,2013-08-03 12:40:00,
2013-08-03 05:45:00,64.2,54.2,30.11,East,90,0.0,0.0,70,0.00,CLR,,0.00,WeatherDisplay:10.37,2013-08-03 12:45:00,
2013-08-03 05:50:00,64.0,54.1,30.11,East,90,0.0,0.0,70,0.00,CLR,,0.00,WeatherDisplay:10.37,2013-08-03 12:50:00,
2013-08-03 06:00:00,63.7,54.1,30.12,East,90,0.0,0.0,71,0.00,CLR,,0.00,WeatherDisplay:10.37,2013-08-03 13:00:00,
2013-08-03 06:05:00,63.7,53.7,30.12,East,90,0.0,0.0,70,0.00,CLR,,0.00,WeatherDisplay:10.37,2013-08-03 13:05:00,
2013-08-03 06:10:00,63.7,53.7,30.12,East,90,0.0,0.0,70,0.00,CLR,,0.00,WeatherDisplay:10.37,2013-08-03 13:10:00,
2013-08-03 06:20:00,63.9,54.3,30.12,East,90,0.0,0.0,71,0.00,CLR,,0.00,WeatherDisplay:10.37,2013-08-03 13:20:00,
2013-08-03 06:30:00,63.9,54.3,30.13,East,90,0.0,0.0,71,0.00,CLR,,0.00,WeatherDisplay:10.37,2013-08-03 13:30:00,
2013-08-03 06:40:00,64.0,54.4,30.13,East,90,0.0,0.0,71,0.00,CLR,,0.00,WeatherDisplay:10.37,2013-08-03 13:40:00,
2013-08-03 06:45:00,64.0,54.4,30.13,East,90,0.0,0.0,71,0.00,CLR,,0.00,WeatherDisplay:10.37,2013-08-03 13:45:00,
2013-08-03 06:50:00,64.2,55.0,30.13,East,90,0.0,0.0,72,0.00,CLR,,0.00,WeatherDisplay:10.37,2013-08-03 13:50:00,
2013-08-03 07:00:00,64.2,55.0,30.13,East,90,0.0,0.0,72,0.00,CLR,,0.00,WeatherDisplay:10.37,2013-08-03 14:00:00,
2013-08-03 07:05:00,64.2,55.0,30.13,East,90,0.0,0.0,72,0.00,CLR,,0.00,WeatherDisplay:10.37,2013-08-03 14:05:00,
2013-08-03 07:10:00,64.6,55.3,30.13,East,90,0.0,0.0,72,0.00,CLR,,0.00,WeatherDisplay:10.37,2013-08-03 14:10:00,
2013-08-03 07:20:00,65.1,55.9,30.14,East,90,0.0,0.0,72,0.00,CLR,,0.00,WeatherDisplay:10.37,2013-08-03 14:20:00,
2013-08-03 07:25:00,65.5,55.0,30.14,East,90,0.0,0.0,69,0.00,CLR,,0.00,WeatherDisplay:10.37,2013-08-03 14:25:00,
2013-08-03 07:30:00,66.0,55.2,30.14,East,90,0.0,0.0,68,0.00,CLR,,0.00,WeatherDisplay:10.37,2013-08-03 14:30:00,
2013-08-03 07:40:00,67.3,55.1,30.14,East,90,0.0,0.0,65,0.00,CLR,,0.00,WeatherDisplay:10.37,2013-08-03 14:40:00,
2013-08-03 07:50:00,68.5,55.4,30.15,East,90,0.0,0.0,63,0.00,CLR,,0.00,WeatherDisplay:10.37,2013-08-03 14:50:00,
2013-08-03 08:00:00,69.6,55.1,30.15,East,90,0.0,0.0,60,0.00,CLR,,0.00,WeatherDisplay:10.37,2013-08-03 15:00:00,
2013-08-03 08:05:00,70.3,55.3,30.15,East,90,0.0,0.0,59,0.00,CLR,,0.00,WeatherDisplay:10.37,2013-08-03 15:05:00,
2013-08-03 08:10:00,70.9,55.8,30.15,East,90,0.0,0.0,59,0.00,CLR,,0.00,WeatherDisplay:10.37,2013-08-03 15:10:00,
2013-08-03 08:20:00,72.1,56.0,30.15,East,90,0.0,0.0,57,0.00,CLR,,0.00,WeatherDisplay:10.37,2013-08-03 15:20:00,
2013-08-03 08:30:00,73.1,56.4,30.15,East,90,0.0,0.0,56,0.00,CLR,,0.00,WeatherDisplay:10.37,2013-08-03 15:30:00,
2013-08-03 08:40:00,73.8,56.6,30.15,East,90,0.0,0.0,55,0.00,CLR,,0.00,WeatherDisplay:10.37,2013-08-03 15:40:00,
2013-08-03 08:50:00,74.8,56.6,30.15,East,81,0.0,0.0,53,0.00,CLR,,0.00,WeatherDisplay:10.37,2013-08-03 15:50:00,
2013-08-03 09:00:00,76.0,57.6,30.15,NNE,22,0.0,0.0,53,0.00,CLR,,0.00,WeatherDisplay:10.37,2013-08-03 16:00:00,
2013-08-03 09:05:00,76.5,57.6,30.15,NNE,22,0.0,0.0,52,0.00,CLR,,0.00,WeatherDisplay:10.37,2013-08-03 16:05:00,
2013-08-03 09:10:00,76.8,57.9,30.15,NNE,22,0.0,0.0,52,0.00,CLR,,0.00,WeatherDisplay:10.37,2013-08-03 16:10:00,
2013-08-03 09:20:00,78.1,57.9,30.15,NNE,22,0.0,0.0,50,0.00,CLR,,0.00,WeatherDisplay:10.37,2013-08-03 16:20:00,
2013-08-03 09:25:00,78.6,58.4,30.15,NNE,22,0.0,0.0,50,0.00,CLR,,0.00,WeatherDisplay:10.37,2013-08-03 16:25:00,
2013-08-03 09:30:00,78.9,58.7,30.15,NNE,22,0.0,0.0,50,0.00,CLR,,0.00,WeatherDisplay:10.37,2013-08-03 16:30:00,
2013-08-03 09:40:00,79.7,58.3,30.15,NNE,22,0.0,0.0,48,0.00,CLR,,0.00,WeatherDisplay:10.37,2013-08-03 16:40:00,
2013-08-03 09:50:00,80.7,58.6,30.15,NNE,22,0.0,0.0,47,0.00,CLR,,0.00,WeatherDisplay:10.37,2013-08-03 16:50:00,
2013-08-03 09:55:00,81.1,58.4,30.15,NNE,22,0.0,0.0,46,0.00,CLR,,0.00,WeatherDisplay:10.37,2013-08-03 16:55:00,
2013-08-03 10:00:00,81.7,58.9,30.15,NNE,22,0.0,0.0,46,0.00,CLR,,0.00,WeatherDisplay:10.37,2013-08-03 17:00:00,
2013-08-03 10:05:00,82.1,58.6,30.15,NNE,17,0.0,0.0,45,0.00,CLR,,0.00,WeatherDisplay:10.37,2013-08-03 17:05:00,
2013-08-03 10:10:00,82.6,59.1,30.15,NNE,17,0.0,0.0,45,0.00,CLR,,0.00,WeatherDisplay:10.37,2013-08-03 17:10:00,
2013-08-03 10:20:00,83.5,59.3,30.15,NE,41,0.0,0.0,44,0.00,CLR,,0.00,WeatherDisplay:10.37,2013-08-03 17:20:00,
2013-08-03 10:30:00,84.4,59.4,30.15,NE,38,0.0,0.0,43,0.00,CLR,,0.00,WeatherDisplay:10.37,2013-08-03 17:30:00,
2013-08-03 10:40:00,85.3,59.6,30.15,NE,43,0.0,0.0,42,0.00,CLR,,0.00,WeatherDisplay:10.37,2013-08-03 17:40:00,
2013-08-03 10:50:00,85.9,59.4,30.15,NE,40,0.0,3.0,41,0.00,CLR,,0.00,WeatherDisplay:10.37,2013-08-03 17:50:00,
2013-08-03 10:55:00,86.4,59.2,30.15,NE,42,0.0,0.0,40,0.00,CLR,,0.00,WeatherDisplay:10.37,2013-08-03 17:55:00,
2013-08-03 11:00:00,86.7,58.8,30.15,NE,45,0.0,0.0,39,0.00,CLR,,0.00,WeatherDisplay:10.37,2013-08-03 18:00:00,
2013-08-03 11:05:00,86.9,59.0,30.15,NE,50,0.0,0.0,39,0.00,CLR,,0.00,WeatherDisplay:10.37,2013-08-03 18:05:00,
2013-08-03 11:10:00,87.1,59.1,30.15,ENE,61,0.0,0.0,39,0.00,CLR,,0.00,WeatherDisplay:10.37,2013-08-03 18:10:00,
2013-08-03 11:15:00,87.5,58.7,30.15,ENE,68,0.0,0.0,38,0.00,CLR,,0.00,WeatherDisplay:10.37,2013-08-03 18:15:00,
2013-08-03 11:20:00,87.6,58.9,30.14,ENE,58,0.0,0.0,38,0.00,CLR,,0.00,WeatherDisplay:10.37,2013-08-03 18:20:00,
2013-08-03 11:30:00,88.4,59.5,30.14,NNE,28,0.0,7.0,38,0.00,CLR,,0.00,WeatherDisplay:10.37,2013-08-03 18:30:00,
2013-08-03 11:40:00,88.7,59.8,30.14,ENE,61,1.0,7.0,38,0.00,CLR,,0.00,WeatherDisplay:10.37,2013-08-03 18:40:00,
2013-08-03 11:50:00,89.4,59.7,30.14,ENE,60,0.0,0.0,37,0.00,CLR,,0.00,WeatherDisplay:10.37,2013-08-03 18:50:00,
2013-08-03 12:00:00,89.8,59.3,30.14,East,91,0.0,0.0,36,0.00,CLR,,0.00,WeatherDisplay:10.37,2013-08-03 19:00:00,
2013-08-03 12:10:00,90.5,59.9,30.14,NE,45,0.0,0.0,36,0.00,CLR,,0.00,WeatherDisplay:10.37,2013-08-03 19:10:00,
2013-08-03 12:20:00,91.2,60.5,30.13,ENE,68,0.0,0.0,36,0.00,CLR,,0.00,WeatherDisplay:10.37,2013-08-03 19:20:00,
2013-08-03 12:30:00,91.9,60.4,30.13,NNE,33,0.0,5.0,35,0.00,CLR,,0.00,WeatherDisplay:10.37,2013-08-03 19:30:00,
2013-08-03 12:40:00,92.1,59.7,30.13,ENE,68,0.0,0.0,34,0.00,CLR,,0.00,WeatherDisplay:10.37,2013-08-03 19:40:00,
2013-08-03 12:50:00,92.5,60.1,30.13,East,79,0.0,0.0,34,0.00,CLR,,0.00,WeatherDisplay:10.37,2013-08-03 19:50:00,
2013-08-03 13:00:00,92.9,60.4,30.13,East,85,0.0,0.0,34,0.00,CLR,,0.00,WeatherDisplay:10.37,2013-08-03 20:00:00,
2013-08-03 13:05:00,93.0,60.5,30.13,ENE,75,0.0,0.0,34,0.00,CLR,,0.00,WeatherDisplay:10.37,2013-08-03 20:05:00,
2013-08-03 13:10:00,93.4,60.0,30.12,ENE,73,0.0,0.0,33,0.00,CLR,,0.00,WeatherDisplay:10.37,2013-08-03 20:10:00,
2013-08-03 13:20:00,93.9,60.4,30.12,ENE,68,0.0,0.0,33,0.00,CLR,,0.00,WeatherDisplay:10.37,2013-08-03 20:20:00,
2013-08-03 13:35:00,94.3,59.9,30.11,ENE,65,0.0,0.0,32,0.00,CLR,,0.00,WeatherDisplay:10.37,2013-08-03 20:35:00,
2013-08-03 13:40:00,94.6,60.2,30.11,SSE,158,0.0,0.0,32,0.00,CLR,,0.00,WeatherDisplay:10.37,2013-08-03 20:40:00,
2013-08-03 13:50:00,95.4,59.9,30.10,WSW,248,0.0,0.0,31,0.00,CLR,,0.00,WeatherDisplay:10.37,2013-08-03 20:50:00,
2013-08-03 14:00:00,95.0,59.6,30.11,WSW,248,0.0,0.0,31,0.00,CLR,,0.00,WeatherDisplay:10.37,2013-08-03 21:00:00,
2013-08-03 14:05:00,95.4,59.9,30.10,WSW,248,1.0,2.0,31,0.00,CLR,,0.00,WeatherDisplay:10.37,2013-08-03 21:05:00,
2013-08-03 14:10:00,95.4,59.9,30.10,WSW,247,0.0,2.0,31,0.00,CLR,,0.00,WeatherDisplay:10.37,2013-08-03 21:10:00,
2013-08-03 14:20:00,94.6,59.3,30.10,SW,223,0.0,0.0,31,0.00,CLR,,0.00,WeatherDisplay:10.37,2013-08-03 21:20:00,
2013-08-03 14:25:00,94.8,59.5,30.10,West,271,0.0,0.0,31,0.00,CLR,,0.00,WeatherDisplay:10.37,2013-08-03 21:25:00,
2013-08-03 14:30:00,94.8,59.4,30.10,NNW,330,0.0,0.0,31,0.00,CLR,,0.00,WeatherDisplay:10.37,2013-08-03 21:30:00,
2013-08-03 14:40:00,94.1,59.7,30.09,NE,49,0.0,0.0,32,0.00,CLR,,0.00,WeatherDisplay:10.37,2013-08-03 21:40:00,
2013-08-03 14:50:00,93.1,58.8,30.09,ENE,68,0.0,0.0,32,0.00,CLR,,0.00,WeatherDisplay:10.37,2013-08-03 21:50:00,
2013-08-03 15:00:00,91.8,60.3,30.09,WSW,248,2.0,8.0,35,0.00,CLR,,0.00,WeatherDisplay:10.37,2013-08-03 22:00:00,
2013-08-03 15:05:00,91.4,60.7,30.09,WSW,248,1.0,6.0,36,0.00,CLR,,0.00,WeatherDisplay:10.37,2013-08-03 22:05:00,
2013-08-03 15:10:00,91.2,62.1,30.09,WSW,250,0.0,4.0,38,0.00,CLR,,0.00,WeatherDisplay:10.37,2013-08-03 22:10:00,
2013-08-03 15:20:00,90.1,61.1,30.09,SW,219,3.0,5.0,38,0.00,CLR,,0.00,WeatherDisplay:10.37,2013-08-03 22:20:00,
2013-08-03 15:30:00,89.4,61.2,30.09,SW,232,6.0,6.0,39,0.00,CLR,,0.00,WeatherDisplay:10.37,2013-08-03 22:30:00,
2013-08-03 15:40:00,88.5,61.1,30.09,SW,216,5.0,5.0,40,0.00,CLR,,0.00,WeatherDisplay:10.37,2013-08-03 22:40:00,
2013-08-03 15:50:00,87.6,60.3,30.08,WSW,244,0.0,0.0,40,0.00,CLR,,0.00,WeatherDisplay:10.37,2013-08-03 22:50:00,
2013-08-03 16:00:00,87.2,59.9,30.08,SW,221,0.0,9.0,40,0.00,CLR,,0.00,WeatherDisplay:10.37,2013-08-03 23:00:00,
2013-08-03 16:05:00,87.0,60.5,30.08,SSW,213,0.0,1.0,41,0.00,CLR,,0.00,WeatherDisplay:10.37,2013-08-03 23:05:00,
2013-08-03 16:10:00,86.5,60.0,30.08,SSW,212,3.0,4.0,41,0.00,CLR,,0.00,WeatherDisplay:10.37,2013-08-03 23:10:00,
2013-08-03 16:20:00,86.2,59.0,30.08,SW,228,1.0,8.0,40,0.00,CLR,,0.00,WeatherDisplay:10.37,2013-08-03 23:20:00,
2013-08-03 16:30:00,85.8,59.4,30.08,SW,229,2.0,4.0,41,0.00,CLR,,0.00,WeatherDisplay:10.37,2013-08-03 23:30:00,
2013-08-03 16:40:00,85.6,59.2,30.08,SW,214,3.0,4.0,41,0.00,CLR,,0.00,WeatherDisplay:10.37,2013-08-03 23:40:00,
2013-08-03 16:50:00,85.3,59.6,30.08,SW,216,0.0,0.0,42,0.00,CLR,,0.00,WeatherDisplay:10.37,2013-08-03 23:50:00,
2013-08-03 17:00:00,84.7,59.1,30.08,SW,216,0.0,0.0,42,0.00,CLR,,0.00,WeatherDisplay:10.37,2013-08-04 00:00:00,
2013-08-03 17:05:00,84.6,59.6,30.08,SW,225,5.0,6.0,43,0.00,CLR,,0.00,WeatherDisplay:10.37,2013-08-04 00:05:00,
2013-08-03 17:10:00,84.4,59.4,30.07,SSW,212,0.0,6.0,43,0.00,CLR,,0.00,WeatherDisplay:10.37,2013-08-04 00:10:00,
2013-08-03 17:20:00,84.0,59.8,30.07,SW,225,0.0,0.0,44,0.00,CLR,,0.00,WeatherDisplay:10.37,2013-08-04 00:20:00,
2013-08-03 17:30:00,83.7,60.1,30.08,SW,225,0.0,0.0,45,0.00,CLR,,0.00,WeatherDisplay:10.37,2013-08-04 00:30:00,
2013-08-03 17:40:00,83.1,60.2,30.08,SSW,212,0.0,0.0,46,0.00,CLR,,0.00,WeatherDisplay:10.37,2013-08-04 00:40:00,
2013-08-03 17:50:00,82.6,59.7,30.08,SSW,207,0.0,0.0,46,0.00,CLR,,0.00,WeatherDisplay:10.37,2013-08-04 00:50:00,
2013-08-03 18:00:00,82.2,60.0,30.08,SSW,202,0.0,0.0,47,0.00,CLR,,0.00,WeatherDisplay:10.37,2013-08-04 01:00:00,
2013-08-03 18:05:00,82.2,60.0,30.08,SSW,202,0.0,0.0,47,0.00,CLR,,0.00,WeatherDisplay:10.37,2013-08-04 01:05:00,
2013-08-03 18:10:00,82.0,60.4,30.08,SSW,202,0.0,0.0,48,0.00,CLR,,0.00,WeatherDisplay:10.37,2013-08-04 01:10:00,
2013-08-03 18:20:00,81.5,59.9,30.08,SSW,202,0.0,0.0,48,0.00,CLR,,0.00,WeatherDisplay:10.37,2013-08-04 01:20:00,
2013-08-03 18:30:00,81.2,60.8,30.08,SSW,205,0.0,0.0,50,0.00,CLR,,0.00,WeatherDisplay:10.37,2013-08-04 01:30:00,
2013-08-03 18:40:00,80.6,60.2,30.07,SSW,207,0.0,0.0,50,0.00,CLR,,0.00,WeatherDisplay:10.37,2013-08-04 01:40:00,
2013-08-03 18:50:00,80.2,59.3,30.07,SSW,202,0.0,0.0,49,0.00,CLR,,0.00,WeatherDisplay:10.37,2013-08-04 01:50:00,
2013-08-03 19:00:00,79.8,58.9,30.07,SW,216,1.0,2.0,49,0.00,CLR,,0.00,WeatherDisplay:10.37,2013-08-04 02:00:00,
2013-08-03 19:05:00,79.7,59.4,30.07,SW,225,0.0,0.0,50,0.00,CLR,,0.00,WeatherDisplay:10.37,2013-08-04 02:05:00,
2013-08-03 19:10:00,79.3,59.1,30.08,SW,225,0.0,0.0,50,0.00,CLR,,0.00,WeatherDisplay:10.37,2013-08-04 02:10:00,
2013-08-03 19:20:00,79.0,59.3,30.08,SW,225,0.0,0.0,51,0.00,CLR,,0.00,WeatherDisplay:10.37,2013-08-04 02:20:00,
2013-08-03 19:30:00,78.6,59.0,30.08,SW,225,0.0,0.0,51,0.00,CLR,,0.00,WeatherDisplay:10.37,2013-08-04 02:30:00,
2013-08-03 19:40:00,78.4,58.8,30.08,SW,225,0.0,0.0,51,0.00,CLR,,0.00,WeatherDisplay:10.37,2013-08-04 02:40:00,
2013-08-03 19:50:00,78.1,58.5,30.08,SW,225,0.0,0.0,51,0.00,CLR,,0.00,WeatherDisplay:10.37,2013-08-04 02:50:00,
2013-08-03 20:00:00,77.9,58.9,30.09,SW,225,0.0,0.0,52,0.00,CLR,,0.00,WeatherDisplay:10.37,2013-08-04 03:00:00,
2013-08-03 20:05:00,77.7,58.7,30.09,SW,225,0.0,0.0,52,0.00,CLR,,0.00,WeatherDisplay:10.37,2013-08-04 03:05:00,
2013-08-03 20:10:00,77.7,58.7,30.09,SW,225,0.0,0.0,52,0.00,CLR,,0.00,WeatherDisplay:10.37,2013-08-04 03:10:00,
2013-08-03 20:20:00,77.5,58.5,30.10,SW,225,0.0,0.0,52,0.00,CLR,,0.00,WeatherDisplay:10.37,2013-08-04 03:20:00,
2013-08-03 20:30:00,77.5,58.5,30.10,SW,225,0.0,0.0,52,0.00,CLR,,0.00,WeatherDisplay:10.37,2013-08-04 03:30:00,
2013-08-03 20:40:00,77.5,58.5,30.10,SW,225,0.0,0.0,52,0.00,CLR,,0.00,WeatherDisplay:10.37,2013-08-04 03:40:00,
2013-08-03 20:50:00,77.4,57.8,30.10,SSW,210,0.0,0.0,51,0.00,CLR,,0.00,WeatherDisplay:10.37,2013-08-04 03:50:00,
2013-08-03 21:00:00,77.4,57.8,30.10,SSW,202,1.0,2.0,51,0.00,CLR,,0.00,WeatherDisplay:10.37,2013-08-04 04:00:00,
2013-08-03 21:05:00,77.4,57.8,30.10,SSW,202,0.0,2.0,51,0.00,CLR,,0.00,WeatherDisplay:10.37,2013-08-04 04:05:00,
2013-08-03 21:10:00,77.4,57.8,30.10,SSW,202,0.0,0.0,51,0.00,CLR,,0.00,WeatherDisplay:10.37,2013-08-04 04:10:00,
2013-08-03 21:15:00,77.4,57.8,30.10,SSW,202,0.0,0.0,51,0.00,CLR,,0.00,WeatherDisplay:10.37,2013-08-04 04:15:00,
2013-08-03 21:20:00,77.4,57.8,30.10,SSW,202,0.0,0.0,51,0.00,CLR,,0.00,WeatherDisplay:10.37,2013-08-04 04:20:00,
2013-08-03 21:25:00,77.2,57.7,30.11,SSW,202,0.0,0.0,51,0.00,CLR,,0.00,WeatherDisplay:10.37,2013-08-04 04:25:00,
2013-08-03 21:30:00,77.2,57.7,30.11,SSW,202,0.0,0.0,51,0.00,CLR,,0.00,WeatherDisplay:10.37,2013-08-04 04:30:00,
2013-08-03 21:40:00,77.0,57.5,30.11,SSW,202,0.0,0.0,51,0.00,CLR,,0.00,WeatherDisplay:10.37,2013-08-04 04:40:00,
2013-08-03 21:50:00,76.8,57.9,30.11,SSW,202,0.0,0.0,52,0.00,CLR,,0.00,WeatherDisplay:10.37,2013-08-04 04:50:00,
2013-08-03 22:00:00,76.6,57.7,30.11,SSW,202,0.0,0.0,52,0.00,CLR,,0.00,WeatherDisplay:10.37,2013-08-04 05:00:00,
2013-08-03 22:05:00,76.6,58.2,30.11,SSW,202,0.0,0.0,53,0.00,CLR,,0.00,WeatherDisplay:10.37,2013-08-04 05:05:00,
2013-08-03 22:10:00,76.5,58.1,30.11,SSW,202,0.0,0.0,53,0.00,CLR,,0.00,WeatherDisplay:10.37,2013-08-04 05:10:00,
2013-08-03 22:20:00,76.3,57.9,30.11,SSW,202,0.0,0.0,53,0.00,CLR,,0.00,WeatherDisplay:10.37,2013-08-04 05:20:00,
2013-08-03 22:30:00,75.9,58.1,30.12,SSW,202,0.0,0.0,54,0.00,CLR,,0.00,WeatherDisplay:10.37,2013-08-04 05:30:00,
2013-08-03 22:40:00,75.9,58.1,30.12,SSW,202,0.0,0.0,54,0.00,CLR,,0.00,WeatherDisplay:10.37,2013-08-04 05:40:00,
2013-08-03 22:50:00,75.7,57.9,30.13,SSW,202,0.0,0.0,54,0.00,CLR,,0.00,WeatherDisplay:10.37,2013-08-04 05:50:00,
2013-08-03 23:00:00,75.9,57.5,30.13,SSW,202,0.0,0.0,53,0.00,CLR,,0.00,WeatherDisplay:10.37,2013-08-04 06:00:00,
2013-08-03 23:05:00,75.7,57.4,30.12,SSW,202,0.0,0.0,53,0.00,CLR,,0.00,WeatherDisplay:10.37,2013-08-04 06:05:00,
2013-08-03 23:10:00,75.7,57.4,30.13,SSW,202,0.0,0.0,53,0.00,CLR,,0.00,WeatherDisplay:10.37,2013-08-04 06:10:00,
2013-08-03 23:20:00,75.7,57.4,30.12,SSW,202,0.0,0.0,53,0.00,CLR,,0.00,WeatherDisplay:10.37,2013-08-04 06:20:00,
2013-08-03 23:30:00,75.6,57.2,30.12,SSW,202,0.0,0.0,53,0.00,CLR,,0.00,WeatherDisplay:10.37,2013-08-04 06:30:00,
2013-08-03 23:40:00,75.6,57.2,30.12,SSW,202,0.0,0.0,53,0.00,CLR,,0.00,WeatherDisplay:10.37,2013-08-04 06:40:00,
2013-08-03 23:50:00,75.4,57.1,30.13,SSW,202,0.0,0.0,53,0.00,CLR,,0.00,WeatherDisplay:10.37,2013-08-04 06:50:00,